Time;durP1;ratioP1;P1;durP2;ratioP2;P2;SDS_P1;SDS_P2;PMS_P1;PMS_P2;Temp;Humidity;BMP_temperature;BMP_pressure;BME280_temperature;BME280_humidity;BME280_pressure;Samples;Min_cycle;Max_cycle;Signal;HPM_P1;HPM_P2
2024/02/29 00:00:59;;;;;;;69.47;18.80;;;;;;;;;;4992674;28;20064;-56
2024/02/29 00:03:47;;;;;;;85.88;21.23;;;;;;;;;;4994404;28;20081;-54
2024/02/29 00:06:41;;;;;;;75.05;19.65;;;;;;;;;;4994475;28;20051;-56
2024/02/29 00:09:28;;;;;;;76.50;19.02;;;;;;;;;;4996640;28;20053;-52
2024/02/29 00:12:22;;;;;;;71.88;19.30;;;;;;;;;;4991394;28;20054;-53
2024/02/29 00:15:10;;;;;;;64.10;18.90;;;;;;;;;;4994887;28;20058;-53
2024/02/29 11:58:54;;;;;;;33.80;16.35;;;;;;;;;;4970167;28;20056;-57
2024/02/29 12:01:28;;;;;;;31.35;15.93;;;;;;;;;;4994796;28;20054;-55
2024/02/29 12:03:56;;;;;;;30.85;16.02;;;;;;;;;;4992680;28;20062;-62
2024/02/29 12:06:24;;;;;;;32.00;15.65;;;;;;;;;;4991854;28;20128;-63
2024/02/29 12:08:59;;;;;;;30.50;15.77;;;;;;;;;;4993478;28;20124;-62
2024/02/29 12:11:27;;;;;;;28.27;16.40;;;;;;;;;;4993531;28;20061;-63
2024/02/29 12:13:54;;;;;;;28.40;15.13;;;;;;;;;;4991520;28;20065;-60
2024/02/29 12:16:29;;;;;;;25.58;14.00;;;;;;;;;;4990656;28;20065;-60
2024/02/29 12:19:16;;;;;;;29.80;15.20;;;;;;;;;;4993767;28;20736;-59
2024/02/29 12:22:13;;;;;;;26.30;14.40;;;;;;;;;;4993973;28;20065;-57
2024/02/29 12:25:11;;;;;;;27.58;13.88;;;;;;;;;;4994193;28;20046;-58
2024/02/29 12:28:05;;;;;;;24.27;11.38;;;;;;;;;;4990161;28;20054;-56
2024/02/29 12:30:52;;;;;;;27.88;13.90;;;;;;;;;;4991670;28;20533;-61
2024/02/29 12:33:46;;;;;;;30.48;14.60;;;;;;;;;;4985920;28;20078;-61
2024/02/29 12:36:34;;;;;;;25.83;14.10;;;;;;;;;;4989744;28;20053;-63
2024/02/29 12:39:28;;;;;;;25.05;13.43;;;;;;;;;;4992020;28;20046;-61
2024/02/29 12:42:15;;;;;;;28.25;13.63;;;;;;;;;;4994573;28;20136;-62
2024/02/29 12:45:10;;;;;;;24.67;13.70;;;;;;;;;;4995678;28;20058;-58
2024/02/29 12:47:57;;;;;;;27.85;14.20;;;;;;;;;;4997560;28;20057;-59
2024/02/29 12:50:51;;;;;;;28.15;14.77;;;;;;;;;;4995602;28;20053;-59
2024/02/29 12:53:39;;;;;;;26.92;14.52;;;;;;;;;;4997438;28;20049;-59
2024/02/29 12:56:36;;;;;;;24.17;13.07;;;;;;;;;;4995556;28;20418;-59
2024/02/29 12:59:29;;;;;;;26.23;13.70;;;;;;;;;;4985915;28;20490;-61
2024/02/29 13:02:23;;;;;;;27.10;14.02;;;;;;;;;;4976642;28;20533;-60
2024/02/29 13:05:10;;;;;;;25.83;12.63;;;;;;;;;;4971566;28;20058;-62
2024/02/29 13:08:05;;;;;;;26.05;13.65;;;;;;;;;;4971521;28;20054;-62
2024/02/29 13:10:52;;;;;;;28.40;13.05;;;;;;;;;;4976914;28;20540;-65
2024/02/29 13:13:46;;;;;;;22.45;13.48;;;;;;;;;;4973540;28;20051;-55
2024/02/29 13:16:33;;;;;;;24.40;12.90;;;;;;;;;;4979335;28;20502;-53
2024/02/29 13:19:27;;;;;;;28.23;12.73;;;;;;;;;;4974296;28;20054;-52
2024/02/29 13:22:14;;;;;;;24.92;12.98;;;;;;;;;;4977644;28;20055;-53
2024/02/29 13:25:08;;;;;;;26.20;13.07;;;;;;;;;;4972847;28;20113;-54
2024/02/29 13:27:56;;;;;;;28.70;13.48;;;;;;;;;;4974592;28;20157;-49
2024/02/29 13:30:49;;;;;;;26.98;13.55;;;;;;;;;;4972260;28;20051;-47
2024/02/29 13:33:36;;;;;;;26.52;14.25;;;;;;;;;;4970597;28;20080;-49
2024/02/29 13:36:30;;;;;;;26.73;14.02;;;;;;;;;;4974857;28;20520;-48
2024/02/29 13:39:17;;;;;;;28.08;13.40;;;;;;;;;;4973629;28;20832;-59
2024/02/29 13:42:11;;;;;;;26.92;12.50;;;;;;;;;;4975168;28;20042;-64
2024/02/29 13:45:08;;;;;;;23.17;12.43;;;;;;;;;;4974664;28;20490;-65
2024/02/29 13:47:54;;;;;;;28.85;13.93;;;;;;;;;;4974725;28;20117;-64
2024/02/29 13:50:48;;;;;;;27.27;12.65;;;;;;;;;;4974977;28;20046;-64
2024/02/29 13:53:35;;;;;;;23.98;12.63;;;;;;;;;;4971912;28;20054;-65
2024/02/29 13:56:29;;;;;;;26.27;13.63;;;;;;;;;;4971255;28;20058;-65
2024/02/29 13:59:23;;;;;;;27.58;13.27;;;;;;;;;;4971959;28;20074;-66
2024/02/29 14:02:17;;;;;;;29.40;14.25;;;;;;;;;;4970497;28;20051;-64
2024/02/29 14:05:05;;;;;;;26.02;12.70;;;;;;;;;;4972013;28;20058;-65
2024/02/29 14:07:58;;;;;;;31.58;15.25;;;;;;;;;;4975572;28;20058;-62
2024/02/29 14:10:45;;;;;;;26.38;12.82;;;;;;;;;;4976204;28;20861;-57
2024/02/29 14:13:39;;;;;;;23.65;12.70;;;;;;;;;;4974429;28;20050;-58
2024/02/29 14:16:26;;;;;;;28.15;13.10;;;;;;;;;;4975079;28;20501;-58
2024/02/29 14:19:20;;;;;;;25.38;11.88;;;;;;;;;;4974310;28;20062;-57
2024/02/29 14:22:07;;;;;;;23.80;11.50;;;;;;;;;;4974971;28;20061;-57
2024/02/29 14:25:01;;;;;;;27.88;13.20;;;;;;;;;;4974113;28;20058;-48
2024/02/29 14:27:49;;;;;;;30.13;13.10;;;;;;;;;;4970420;28;20133;-46
2024/02/29 14:30:42;;;;;;;28.10;13.82;;;;;;;;;;4976050;28;20374;-52
2024/02/29 14:33:29;;;;;;;23.33;12.60;;;;;;;;;;4969310;28;20132;-48
2024/02/29 14:36:23;;;;;;;26.63;12.65;;;;;;;;;;4971290;28;20057;-58
2024/02/29 14:39:14;;;;;;;30.42;13.93;;;;;;;;;;4974366;28;20113;-65
2024/02/29 14:42:08;;;;;;;28.35;13.45;;;;;;;;;;4970463;28;20068;-65
2024/02/29 14:45:01;;;;;;;26.33;12.32;;;;;;;;;;4971575;28;20050;-66
2024/02/29 14:47:48;;;;;;;27.75;13.82;;;;;;;;;;4970836;28;20062;-65
2024/02/29 14:50:42;;;;;;;30.92;14.10;;;;;;;;;;4974351;28;20099;-66
2024/02/29 14:53:29;;;;;;;32.05;14.52;;;;;;;;;;4974901;28;20062;-65
2024/02/29 14:56:23;;;;;;;41.17;16.90;;;;;;;;;;4973801;28;20065;-63
2024/02/29 14:59:11;;;;;;;32.33;15.18;;;;;;;;;;4979729;28;20066;-64
2024/02/29 15:02:04;;;;;;;31.40;15.18;;;;;;;;;;4994564;28;20057;-64
2024/02/29 15:04:51;;;;;;;33.10;16.00;;;;;;;;;;4993973;28;20042;-65
2024/02/29 15:07:45;;;;;;;36.65;18.40;;;;;;;;;;4992812;28;20376;-52
2024/02/29 15:10:32;;;;;;;43.95;21.55;;;;;;;;;;4979570;28;20061;-51
2024/02/29 15:13:26;;;;;;;45.08;21.35;;;;;;;;;;4988173;28;20505;-54
2024/02/29 15:16:20;;;;;;;56.05;28.13;;;;;;;;;;4987469;28;20053;-52
2024/02/29 15:19:14;;;;;;;46.50;20.98;;;;;;;;;;4993152;28;20086;-55
2024/02/29 15:22:08;;;;;;;38.15;18.55;;;;;;;;;;4993586;28;20074;-60
2024/02/29 15:24:55;;;;;;;41.22;18.88;;;;;;;;;;4993896;28;23673;-58
2024/02/29 15:27:53;;;;;;;50.05;22.58;;;;;;;;;;4994600;28;20072;-60
2024/02/29 15:30:36;;;;;;;39.25;19.02;;;;;;;;;;4991652;28;20053;-57
2024/02/29 15:33:30;;;;;;;39.58;18.92;;;;;;;;;;4994989;28;20068;-57
2024/02/29 15:36:17;;;;;;;47.08;19.45;;;;;;;;;;4995182;28;20057;-61
2024/02/29 15:39:11;;;;;;;50.65;22.05;;;;;;;;;;4994488;28;20057;-62
2024/02/29 15:42:05;;;;;;;48.08;22.45;;;;;;;;;;4993718;28;20050;-62
2024/02/29 15:44:52;;;;;;;45.30;20.67;;;;;;;;;;4990365;28;20108;-62
2024/02/29 15:47:46;;;;;;;46.15;22.45;;;;;;;;;;4992150;28;20116;-61
2024/02/29 15:50:33;;;;;;;46.55;21.90;;;;;;;;;;4993387;28;20045;-65
2024/02/29 15:53:27;;;;;;;45.58;20.95;;;;;;;;;;4989281;28;20058;-64
2024/02/29 15:56:14;;;;;;;41.42;19.63;;;;;;;;;;4991750;28;20118;-64
2024/02/29 15:59:09;;;;;;;44.90;21.15;;;;;;;;;;4995203;28;20772;-65
2024/02/29 16:02:09;;;;;;;50.85;22.05;;;;;;;;;;4994556;28;20049;-64
2024/02/29 16:04:59;;;;;;;48.75;20.63;;;;;;;;;;4992024;28;20088;-62
2024/02/29 16:07:52;;;;;;;50.28;20.27;;;;;;;;;;4991371;28;20077;-62
2024/02/29 16:10:41;;;;;;;47.88;19.95;;;;;;;;;;4994720;28;20105;-62
2024/02/29 16:13:35;;;;;;;52.85;21.45;;;;;;;;;;4995500;28;20140;-62
2024/02/29 16:16:22;;;;;;;54.00;21.48;;;;;;;;;;4993163;28;20060;-62
2024/02/29 16:19:16;;;;;;;51.05;21.42;;;;;;;;;;4995323;28;20104;-53
2024/02/29 16:22:12;;;;;;;53.67;22.63;;;;;;;;;;4991485;28;20140;-54
2024/02/29 16:25:06;;;;;;;51.05;20.80;;;;;;;;;;4990750;28;20045;-55
2024/02/29 16:27:53;;;;;;;54.75;23.15;;;;;;;;;;4991511;28;20568;-65
2024/02/29 16:30:47;;;;;;;54.65;22.75;;;;;;;;;;4996981;28;20050;-48
2024/02/29 16:33:34;;;;;;;63.45;28.27;;;;;;;;;;4994384;28;20514;-55
2024/02/29 16:36:28;;;;;;;62.42;24.27;;;;;;;;;;4993256;28;20061;-52
2024/02/29 16:39:15;;;;;;;55.10;22.23;;;;;;;;;;4993936;28;20049;-54
2024/02/29 16:42:09;;;;;;;59.53;23.13;;;;;;;;;;4992976;28;20573;-54
2024/02/29 16:44:57;;;;;;;55.38;23.73;;;;;;;;;;4992951;28;20051;-55
2024/02/29 16:47:50;;;;;;;61.65;24.95;;;;;;;;;;4991043;28;20117;-65
2024/02/29 16:50:37;;;;;;;58.55;23.90;;;;;;;;;;4989518;28;20054;-65
2024/02/29 16:53:31;;;;;;;60.38;23.63;;;;;;;;;;4991340;28;20054;-65
2024/02/29 16:56:18;;;;;;;61.13;24.60;;;;;;;;;;4987639;28;20128;-65
2024/02/29 16:59:19;;;;;;;65.63;30.90;;;;;;;;;;4990118;28;20062;-62
2024/02/29 17:02:12;;;;;;;67.68;30.85;;;;;;;;;;4990679;28;20109;-54
2024/02/29 17:05:06;;;;;;;62.33;25.20;;;;;;;;;;4992606;28;20422;-53
2024/02/29 17:07:53;;;;;;;60.13;25.10;;;;;;;;;;4992249;28;20055;-50
2024/02/29 17:10:47;;;;;;;60.72;24.98;;;;;;;;;;4990024;28;20069;-54
2024/02/29 17:13:34;;;;;;;68.25;27.00;;;;;;;;;;4983358;28;20154;-51
2024/02/29 17:16:28;;;;;;;66.45;25.20;;;;;;;;;;4982526;28;21088;-50
2024/02/29 17:19:15;;;;;;;67.55;27.27;;;;;;;;;;4984385;28;20050;-51
2024/02/29 17:22:09;;;;;;;61.00;26.13;;;;;;;;;;4983352;28;20617;-49
2024/02/29 17:24:56;;;;;;;62.90;27.65;;;;;;;;;;4993234;28;20131;-62
2024/02/29 17:27:50;;;;;;;62.10;24.55;;;;;;;;;;4994446;28;20108;-62
2024/02/29 17:30:44;;;;;;;62.85;25.85;;;;;;;;;;4989890;28;20188;-51
2024/02/29 17:33:31;;;;;;;59.85;23.65;;;;;;;;;;4989987;28;20053;-48
2024/02/29 17:36:25;;;;;;;57.88;23.63;;;;;;;;;;4988749;28;20070;-49
2024/02/29 17:39:12;;;;;;;100.28;47.20;;;;;;;;;;4989200;28;20112;-54
2024/02/29 17:42:06;;;;;;;68.82;29.48;;;;;;;;;;4989955;28;20107;-51
2024/02/29 17:44:53;;;;;;;71.25;28.85;;;;;;;;;;4994529;28;20514;-63
2024/02/29 17:47:47;;;;;;;64.13;26.80;;;;;;;;;;4987901;28;20092;-62
2024/02/29 17:50:34;;;;;;;78.40;29.60;;;;;;;;;;4989067;28;20672;-62
2024/02/29 17:53:28;;;;;;;76.50;29.50;;;;;;;;;;4995928;28;20117;-61
2024/02/29 17:56:18;;;;;;;101.53;44.55;;;;;;;;;;4992926;28;20604;-48
2024/02/29 17:59:16;;;;;;;82.20;30.98;;;;;;;;;;4993078;28;20057;-62
2024/02/29 18:02:10;;;;;;;76.45;30.20;;;;;;;;;;4991698;28;20778;-62
2024/02/29 18:05:03;;;;;;;80.22;30.40;;;;;;;;;;4987018;28;20112;-62
2024/02/29 18:07:50;;;;;;;80.60;31.63;;;;;;;;;;4991517;28;20054;-62
2024/02/29 18:10:44;;;;;;;78.07;29.95;;;;;;;;;;4989764;28;20156;-62
2024/02/29 18:13:31;;;;;;;79.25;30.60;;;;;;;;;;4990568;28;20508;-56
2024/02/29 18:16:25;;;;;;;83.72;31.60;;;;;;;;;;4987624;28;20065;-55
2024/02/29 18:19:19;;;;;;;77.45;29.42;;;;;;;;;;4989318;28;20444;-56
2024/02/29 18:22:06;;;;;;;81.40;31.23;;;;;;;;;;4992029;28;20050;-62
2024/02/29 18:25:00;;;;;;;92.18;34.08;;;;;;;;;;4992481;28;20043;-53
2024/02/29 18:27:48;;;;;;;87.55;33.17;;;;;;;;;;4982028;28;20604;-55
2024/02/29 18:30:41;;;;;;;93.45;33.42;;;;;;;;;;4987757;28;20042;-55
2024/02/29 18:33:28;;;;;;;89.70;32.45;;;;;;;;;;4988012;28;20445;-53
2024/02/29 18:36:22;;;;;;;84.82;33.92;;;;;;;;;;4987872;28;20073;-52
2024/02/29 18:39:16;;;;;;;82.88;32.03;;;;;;;;;;4989908;28;20298;-53
2024/02/29 18:42:03;;;;;;;82.55;33.03;;;;;;;;;;4991645;28;20136;-63
2024/02/29 18:44:57;;;;;;;77.15;29.92;;;;;;;;;;4989693;28;20046;-64
2024/02/29 18:47:44;;;;;;;79.25;29.38;;;;;;;;;;4989660;28;20217;-64
2024/02/29 18:50:38;;;;;;;77.93;31.42;;;;;;;;;;4988622;28;20054;-65
2024/02/29 18:53:25;;;;;;;80.10;31.67;;;;;;;;;;4994791;28;20057;-55
2024/02/29 18:56:19;;;;;;;82.30;31.63;;;;;;;;;;4989272;28;20058;-55
2024/02/29 18:59:08;;;;;;;82.30;30.58;;;;;;;;;;4992207;28;20115;-54
2024/02/29 19:02:07;;;;;;;81.65;31.40;;;;;;;;;;4965974;28;20499;-54
2024/02/29 19:04:54;;;;;;;79.88;30.60;;;;;;;;;;4971279;28;20057;-53
2024/02/29 19:07:48;;;;;;;80.90;31.45;;;;;;;;;;4973524;28;20050;-56
2024/02/29 19:10:36;;;;;;;89.82;34.08;;;;;;;;;;4970513;28;20050;-62
2024/02/29 19:13:32;;;;;;;80.13;30.30;;;;;;;;;;4969111;28;20069;-62
2024/02/29 19:16:16;;;;;;;76.95;29.98;;;;;;;;;;4974189;28;20061;-62
2024/02/29 19:19:10;;;;;;;75.28;31.40;;;;;;;;;;4969368;28;20058;-56
2024/02/29 19:21:57;;;;;;;79.38;30.02;;;;;;;;;;4968852;28;20050;-61
2024/02/29 19:24:51;;;;;;;83.63;31.77;;;;;;;;;;4970988;28;20184;-61
2024/02/29 19:27:38;;;;;;;78.90;30.20;;;;;;;;;;4967944;28;20106;-62
2024/02/29 19:30:32;;;;;;;93.18;33.22;;;;;;;;;;4966249;28;20042;-62
2024/02/29 19:33:26;;;;;;;74.70;31.75;;;;;;;;;;4963532;28;20061;-62
2024/02/29 19:36:17;;;;;;;79.38;32.20;;;;;;;;;;4967038;28;20509;-62
2024/02/29 19:39:16;;;;;;;84.45;34.28;;;;;;;;;;4968874;28;20072;-58
2024/02/29 19:42:03;;;;;;;77.20;30.40;;;;;;;;;;4970403;28;20146;-59
2024/02/29 19:44:59;;;;;;;89.13;33.15;;;;;;;;;;4970467;28;20050;-54
2024/02/29 19:47:46;;;;;;;82.75;31.95;;;;;;;;;;4969409;28;20054;-53
2024/02/29 19:50:38;;;;;;;88.60;33.42;;;;;;;;;;4968350;28;20153;-54
2024/02/29 19:53:32;;;;;;;82.63;32.47;;;;;;;;;;4974126;28;20041;-53
2024/02/29 19:56:19;;;;;;;80.68;30.83;;;;;;;;;;4971755;28;20058;-55
2024/02/29 19:59:26;;;;;;;88.88;34.80;;;;;;;;;;4968753;28;20896;-54
2024/02/29 20:02:20;;;;;;;82.90;33.72;;;;;;;;;;4968811;28;20058;-55
2024/02/29 20:05:17;;;;;;;91.00;35.67;;;;;;;;;;4960418;28;20062;-56
2024/02/29 20:08:11;;;;;;;82.15;32.53;;;;;;;;;;4973022;28;23722;-63
2024/02/29 20:10:58;;;;;;;82.50;33.30;;;;;;;;;;4967775;28;20046;-63
2024/02/29 20:13:52;;;;;;;89.75;35.05;;;;;;;;;;4971196;28;20586;-64
2024/02/29 20:16:40;;;;;;;85.88;32.85;;;;;;;;;;4969561;28;20417;-65
2024/02/29 20:19:33;;;;;;;88.78;33.63;;;;;;;;;;4968275;28;20152;-63
2024/02/29 20:22:20;;;;;;;88.00;35.00;;;;;;;;;;4969506;28;20138;-63
2024/02/29 20:25:14;;;;;;;89.53;33.47;;;;;;;;;;4962263;28;20065;-63
2024/02/29 20:28:02;;;;;;;92.80;34.30;;;;;;;;;;4973263;28;20051;-63
2024/02/29 20:30:55;;;;;;;97.90;37.63;;;;;;;;;;4968669;28;20466;-63
2024/02/29 20:33:46;;;;;;;85.40;33.78;;;;;;;;;;4970443;28;20054;-64
2024/02/29 20:36:42;;;;;;;85.95;34.17;;;;;;;;;;4968953;28;20113;-58
2024/02/29 20:39:28;;;;;;;87.20;34.95;;;;;;;;;;4967543;28;20077;-57
2024/02/29 20:42:21;;;;;;;85.05;33.75;;;;;;;;;;4964683;28;20422;-58
2024/02/29 20:45:08;;;;;;;92.57;35.97;;;;;;;;;;4967165;28;20123;-59
2024/02/29 20:48:02;;;;;;;86.68;35.85;;;;;;;;;;4969153;28;20418;-61
2024/02/29 20:50:50;;;;;;;91.80;35.65;;;;;;;;;;4966455;28;20081;-62
2024/02/29 20:53:43;;;;;;;88.25;35.25;;;;;;;;;;4969585;28;20488;-61
2024/02/29 20:56:30;;;;;;;92.53;35.22;;;;;;;;;;4966093;28;20090;-61
2024/02/29 20:59:37;;;;;;;84.55;32.78;;;;;;;;;;4971830;28;20188;-61
2024/02/29 21:02:31;;;;;;;83.97;33.60;;;;;;;;;;4990480;28;20073;-53
2024/02/29 21:05:25;;;;;;;89.90;35.28;;;;;;;;;;4993904;28;20513;-52
2024/02/29 21:08:12;;;;;;;81.88;32.80;;;;;;;;;;4992805;28;20058;-53
2024/02/29 21:11:06;;;;;;;88.50;33.60;;;;;;;;;;4990293;28;20057;-57
2024/02/29 21:13:53;;;;;;;79.07;31.73;;;;;;;;;;4992099;28;20060;-57
2024/02/29 21:16:47;;;;;;;82.50;32.22;;;;;;;;;;4992631;28;20090;-47
2024/02/29 21:19:34;;;;;;;78.82;32.88;;;;;;;;;;4996033;28;20110;-52
2024/02/29 21:22:35;;;;;;;80.90;34.28;;;;;;;;;;4995517;28;20061;-52
2024/02/29 21:25:29;;;;;;;78.50;31.58;;;;;;;;;;4996151;28;20057;-51
2024/02/29 21:28:22;;;;;;;79.00;32.22;;;;;;;;;;4997365;28;20092;-52
2024/02/29 21:31:10;;;;;;;72.60;31.27;;;;;;;;;;4995373;28;20066;-58
2024/02/29 21:34:04;;;;;;;76.97;31.33;;;;;;;;;;4990884;28;20481;-58
2024/02/29 21:36:58;;;;;;;80.45;32.10;;;;;;;;;;4990315;28;20076;-59
2024/02/29 21:39:45;;;;;;;74.75;30.25;;;;;;;;;;4992755;28;20064;-60
2024/02/29 21:42:39;;;;;;;73.53;31.23;;;;;;;;;;4997600;28;20588;-65
2024/02/29 21:45:26;;;;;;;74.05;31.63;;;;;;;;;;4995512;28;20050;-64
2024/02/29 21:48:20;;;;;;;77.75;31.05;;;;;;;;;;4983681;28;20180;-64
2024/02/29 21:51:08;;;;;;;93.53;34.85;;;;;;;;;;4992590;28;20113;-64
2024/02/29 21:54:01;;;;;;;77.20;31.67;;;;;;;;;;4994027;28;20078;-64
2024/02/29 21:56:48;;;;;;;74.97;30.85;;;;;;;;;;4992082;28;20058;-63
2024/02/29 21:59:50;;;;;;;81.90;32.50;;;;;;;;;;4987495;28;20064;-61
2024/02/29 22:02:44;;;;;;;82.10;34.85;;;;;;;;;;4991983;28;20053;-60
2024/02/29 22:05:37;;;;;;;88.07;35.28;;;;;;;;;;4992179;28;20928;-59
2024/02/29 22:08:24;;;;;;;85.40;35.67;;;;;;;;;;4992115;28;20053;-59
2024/02/29 22:11:19;;;;;;;85.03;33.38;;;;;;;;;;4988895;28;20125;-54
2024/02/29 22:14:13;;;;;;;89.32;35.97;;;;;;;;;;4991634;28;20244;-60
2024/02/29 22:17:08;;;;;;;88.40;35.17;;;;;;;;;;4989830;28;20061;-60
2024/02/29 22:19:54;;;;;;;85.60;33.70;;;;;;;;;;4992232;28;20520;-59
2024/02/29 22:22:48;;;;;;;90.65;35.67;;;;;;;;;;4994728;28;20054;-61
2024/02/29 22:25:35;;;;;;;78.80;34.10;;;;;;;;;;4993197;28;20096;-60
2024/02/29 22:28:29;;;;;;;91.15;36.40;;;;;;;;;;4994976;28;20108;-62
2024/02/29 22:31:16;;;;;;;89.13;35.55;;;;;;;;;;4992286;28;20104;-62
2024/02/29 22:34:10;;;;;;;88.28;36.15;;;;;;;;;;4993716;28;20784;-61
2024/02/29 22:36:57;;;;;;;86.68;34.97;;;;;;;;;;4995008;28;21711;-61
2024/02/29 22:40:05;;;;;;;82.43;34.20;;;;;;;;;;4991738;28;20793;-52
2024/02/29 22:42:59;;;;;;;86.20;35.03;;;;;;;;;;4992744;28;20421;-57
2024/02/29 22:45:52;;;;;;;97.90;35.80;;;;;;;;;;4992695;28;21604;-59
2024/02/29 22:48:39;;;;;;;84.63;35.20;;;;;;;;;;4992677;28;21653;-60
2024/02/29 22:51:33;;;;;;;88.07;35.25;;;;;;;;;;4991966;28;20050;-59
2024/02/29 22:54:20;;;;;;;74.13;31.17;;;;;;;;;;4991482;28;20065;-59
2024/02/29 22:57:14;;;;;;;75.18;33.38;;;;;;;;;;4992976;28;20057;-59
2024/02/29 23:00:10;;;;;;;86.47;35.85;;;;;;;;;;4989722;28;20050;-59
2024/02/29 23:03:09;;;;;;;79.00;32.03;;;;;;;;;;4992608;28;20058;-59
2024/02/29 23:05:56;;;;;;;84.80;32.58;;;;;;;;;;4992885;28;20518;-58
2024/02/29 23:08:50;;;;;;;77.30;31.63;;;;;;;;;;4989616;28;20068;-57
2024/02/29 23:11:44;;;;;;;85.85;34.78;;;;;;;;;;4989095;28;20058;-54
2024/02/29 23:14:31;;;;;;;75.05;32.47;;;;;;;;;;4988210;28;20778;-51
2024/02/29 23:17:25;;;;;;;78.30;30.20;;;;;;;;;;4992892;28;20057;-47
2024/02/29 23:20:12;;;;;;;73.80;32.15;;;;;;;;;;4992149;28;20085;-48
2024/02/29 23:23:06;;;;;;;72.95;31.63;;;;;;;;;;4990812;28;20049;-51
2024/02/29 23:25:53;;;;;;;74.80;31.10;;;;;;;;;;4992387;28;20513;-65
2024/02/29 23:28:47;;;;;;;66.40;29.27;;;;;;;;;;4990256;28;20770;-65
2024/02/29 23:31:34;;;;;;;67.60;30.98;;;;;;;;;;4991525;28;20560;-65
2024/02/29 23:34:28;;;;;;;73.15;31.48;;;;;;;;;;4986273;28;20497;-63
2024/02/29 23:37:15;;;;;;;69.55;31.60;;;;;;;;;;4990513;28;20504;-52
2024/02/29 23:40:10;;;;;;;68.25;29.83;;;;;;;;;;4990998;28;20057;-65
2024/02/29 23:42:57;;;;;;;68.95;30.80;;;;;;;;;;4992645;28;20054;-65
2024/02/29 23:45:50;;;;;;;67.45;31.38;;;;;;;;;;4992262;28;20146;-65
2024/02/29 23:48:37;;;;;;;68.53;30.33;;;;;;;;;;4990442;28;20084;-65
2024/02/29 23:51:31;;;;;;;68.75;30.77;;;;;;;;;;4985780;28;20049;-65
2024/02/29 23:54:18;;;;;;;66.05;31.73;;;;;;;;;;4993201;28;20391;-48
2024/02/29 23:57:12;;;;;;;68.18;31.17;;;;;;;;;;4987017;28;20058;-48
